Time;durP1;ratioP1;P1;durP2;ratioP2;P2;SDS_P1;SDS_P2;PMS_P1;PMS_P2;Temp;Humidity;BMP_temperature;BMP_pressure;BME280_temperature;BME280_humidity;BME280_pressure;Samples;Min_cycle;Max_cycle;Signal;HPM_P1;HPM_P2
2021/12/10 00:01:50;;;;;;;5.63;1.30;;;;;;;;;;5020332;28;20075;-74
2021/12/10 00:04:20;;;;;;;3.40;1.37;;;;;;;;;;5020808;28;20049;-76
2021/12/10 00:06:54;;;;;;;1.60;1.02;;;;;;;;;;5017219;28;20450;-74
2021/12/10 00:09:31;;;;;;;2.78;1.20;;;;;;;;;;5003341;28;20634;-75
2021/12/10 00:12:06;;;;;;;2.92;1.25;;;;;;;;;;5020634;28;20131;-77
2021/12/10 00:14:35;;;;;;;2.65;1.42;;;;;;;;;;5034734;28;20072;-73
2021/12/10 00:17:05;;;;;;;3.60;1.02;;;;;;;;;;5025807;28;20060;-75
2021/12/10 00:19:40;;;;;;;2.85;1.23;;;;;;;;;;5024711;28;20651;-74
2021/12/10 00:22:11;;;;;;;1.85;1.02;;;;;;;;;;5025978;28;20130;-76
2021/12/10 00:24:39;;;;;;;2.50;1.10;;;;;;;;;;5024751;28;20688;-77
2021/12/10 00:27:08;;;;;;;2.65;1.00;;;;;;;;;;5006934;28;20055;-73
2021/12/10 00:29:48;;;;;;;6.57;1.40;;;;;;;;;;5024287;28;20061;-75
2021/12/10 00:32:29;;;;;;;3.20;1.17;;;;;;;;;;5034790;28;20056;-73
2021/12/10 00:34:57;;;;;;;1.13;1.02;;;;;;;;;;5036558;28;20677;-73
2021/12/10 00:37:25;;;;;;;2.35;1.17;;;;;;;;;;5029957;28;20170;-75
2021/12/10 00:39:56;;;;;;;2.50;1.02;;;;;;;;;;5023806;28;20057;-74
2021/12/10 00:42:29;;;;;;;2.22;1.30;;;;;;;;;;5022077;28;20106;-75
2021/12/10 00:44:57;;;;;;;3.05;1.25;;;;;;;;;;5023756;28;20057;-76
2021/12/10 00:47:24;;;;;;;3.70;1.30;;;;;;;;;;5020480;28;20045;-78
2021/12/10 00:49:52;;;;;;;2.30;1.20;;;;;;;;;;5022134;28;20436;-76
2021/12/10 00:52:19;;;;;;;1.95;1.00;;;;;;;;;;5023701;28;20041;-75
2021/12/10 00:54:46;;;;;;;2.47;1.20;;;;;;;;;;5024599;28;20084;-76
2021/12/10 00:57:14;;;;;;;2.28;1.25;;;;;;;;;;5023748;28;20226;-76
2021/12/10 00:59:43;;;;;;;2.95;1.13;;;;;;;;;;5024730;28;20080;-75
2021/12/10 01:02:13;;;;;;;2.80;1.40;;;;;;;;;;5025867;28;20052;-74
2021/12/10 01:04:45;;;;;;;2.38;1.25;;;;;;;;;;5026286;28;20544;-74
2021/12/10 01:07:15;;;;;;;1.58;1.08;;;;;;;;;;5023338;28;20060;-73
2021/12/10 01:09:46;;;;;;;1.73;1.10;;;;;;;;;;5029739;28;20037;-73
2021/12/10 01:12:23;;;;;;;4.28;1.30;;;;;;;;;;5030760;28;20068;-75
2021/12/10 01:23:48;;;;;;;2.95;1.20;;;;;;;;;;5020851;28;20042;-74
2021/12/10 01:28:47;;;;;;;4.40;1.10;;;;;;;;;;4998400;28;20538;-74
2021/12/10 01:31:14;;;;;;;3.28;1.17;;;;;;;;;;4983201;28;20412;-77
2021/12/10 01:33:43;;;;;;;9.52;1.23;;;;;;;;;;4988590;28;20152;-74
2021/12/10 01:36:10;;;;;;;3.28;1.00;;;;;;;;;;5005783;28;20065;-74
2021/12/10 01:38:39;;;;;;;3.03;1.08;;;;;;;;;;4987364;28;20451;-73
2021/12/10 01:41:10;;;;;;;3.08;1.30;;;;;;;;;;5003968;28;20806;-72
2021/12/10 01:43:39;;;;;;;3.67;1.10;;;;;;;;;;5022234;28;20697;-72
2021/12/10 01:46:18;;;;;;;5.75;1.30;;;;;;;;;;5021955;28;20480;-75
2021/12/10 01:48:51;;;;;;;3.35;1.20;;;;;;;;;;5004062;28;20060;-76
2021/12/10 01:51:27;;;;;;;2.17;1.30;;;;;;;;;;5003929;28;20038;-74
2021/12/10 01:53:58;;;;;;;7.68;1.48;;;;;;;;;;4977367;28;20582;-77
2021/12/10 01:56:28;;;;;;;1.88;1.20;;;;;;;;;;5011594;28;20056;-72
2021/12/10 01:58:57;;;;;;;2.72;1.10;;;;;;;;;;5026699;28;21695;-72
2021/12/10 02:01:32;;;;;;;1.83;1.08;;;;;;;;;;5023861;28;20079;-78
2021/12/10 02:04:01;;;;;;;3.30;1.30;;;;;;;;;;5027883;28;20068;-78
2021/12/10 02:06:28;;;;;;;1.83;1.10;;;;;;;;;;5021041;28;20064;-74
2021/12/10 02:08:54;;;;;;;3.05;1.30;;;;;;;;;;5018100;28;20381;-75
2021/12/10 02:11:21;;;;;;;5.22;1.30;;;;;;;;;;5020262;28;20048;-76
2021/12/10 02:13:49;;;;;;;2.78;1.00;;;;;;;;;;5022144;28;20135;-76
2021/12/10 02:16:15;;;;;;;0.98;0.90;;;;;;;;;;5028894;28;20061;-73
2021/12/10 02:18:42;;;;;;;2.40;1.25;;;;;;;;;;5031931;28;20037;-73
2021/12/10 02:21:09;;;;;;;3.00;1.20;;;;;;;;;;5023378;28;20060;-72
2021/12/10 02:23:46;;;;;;;2.08;1.20;;;;;;;;;;5023127;28;20162;-72
2021/12/10 02:26:14;;;;;;;2.25;1.17;;;;;;;;;;5022881;28;20110;-72
2021/12/10 02:28:41;;;;;;;1.90;1.08;;;;;;;;;;5017522;28;20155;-72
2021/12/10 02:31:09;;;;;;;3.15;1.58;;;;;;;;;;5028128;28;20053;-72
2021/12/10 02:33:36;;;;;;;2.35;1.17;;;;;;;;;;5029730;28;20134;-73
2021/12/10 02:36:03;;;;;;;2.03;1.13;;;;;;;;;;5028514;28;20087;-75
2021/12/10 02:38:30;;;;;;;3.13;1.10;;;;;;;;;;5019798;28;20126;-75
2021/12/10 02:40:57;;;;;;;2.00;0.98;;;;;;;;;;5024949;28;20061;-74
2021/12/10 02:43:24;;;;;;;3.03;1.40;;;;;;;;;;5028439;28;20189;-78
2021/12/10 02:45:54;;;;;;;2.75;1.00;;;;;;;;;;5025532;28;20077;-79
2021/12/10 02:48:21;;;;;;;4.20;1.20;;;;;;;;;;5021521;28;20431;-74
2021/12/10 02:50:48;;;;;;;1.45;1.13;;;;;;;;;;5023737;28;20084;-76
2021/12/10 02:53:19;;;;;;;5.57;1.17;;;;;;;;;;5027774;28;20074;-75
2021/12/10 02:55:46;;;;;;;2.13;1.23;;;;;;;;;;5025578;28;20075;-73
2021/12/10 02:58:14;;;;;;;1.83;1.08;;;;;;;;;;5024277;28;20064;-73
2021/12/10 03:00:59;;;;;;;2.42;1.30;;;;;;;;;;5024217;28;20672;-75
2021/12/10 03:03:26;;;;;;;6.03;1.35;;;;;;;;;;5027538;28;20067;-76
2021/12/10 03:05:54;;;;;;;1.90;1.10;;;;;;;;;;5025809;28;20483;-78
2021/12/10 03:08:21;;;;;;;2.97;1.27;;;;;;;;;;5024939;28;20055;-77
2021/12/10 03:10:47;;;;;;;5.15;1.40;;;;;;;;;;5005287;28;20583;-72
2021/12/10 03:13:13;;;;;;;2.67;1.30;;;;;;;;;;5024651;28;20517;-74
2021/12/10 03:15:42;;;;;;;4.22;1.27;;;;;;;;;;5027180;28;22646;-72
2021/12/10 03:18:12;;;;;;;2.50;1.23;;;;;;;;;;5024549;28;20074;-71
2021/12/10 03:20:40;;;;;;;2.40;1.20;;;;;;;;;;5023789;28;20056;-71
2021/12/10 03:23:07;;;;;;;2.75;1.20;;;;;;;;;;5001357;28;20106;-73
2021/12/10 03:25:34;;;;;;;2.88;1.10;;;;;;;;;;5020938;28;20407;-77
2021/12/10 03:28:01;;;;;;;1.80;0.98;;;;;;;;;;5015610;28;20045;-78
2021/12/10 03:30:31;;;;;;;2.42;1.10;;;;;;;;;;5023525;28;20490;-74
2021/12/10 03:32:58;;;;;;;4.97;1.10;;;;;;;;;;5004484;28;20056;-74
2021/12/10 03:35:28;;;;;;;1.85;1.10;;;;;;;;;;5003403;28;20132;-76
2021/12/10 03:38:01;;;;;;;1.65;1.15;;;;;;;;;;5000771;28;20055;-73
2021/12/10 03:40:28;;;;;;;4.32;1.00;;;;;;;;;;5026715;28;20057;-71
2021/12/10 03:42:58;;;;;;;3.88;1.20;;;;;;;;;;5022804;28;22588;-74
2021/12/10 03:45:31;;;;;;;4.57;1.20;;;;;;;;;;5023423;28;20054;-76
2021/12/10 03:48:02;;;;;;;2.22;1.20;;;;;;;;;;5051745;28;20908;-73
2021/12/10 03:50:32;;;;;;;2.67;1.10;;;;;;;;;;5021546;28;20080;-73
2021/12/10 03:52:59;;;;;;;1.75;1.10;;;;;;;;;;5017349;28;20150;-74
2021/12/10 03:55:27;;;;;;;2.25;1.20;;;;;;;;;;5027599;28;20500;-73
2021/12/10 03:57:55;;;;;;;4.07;1.27;;;;;;;;;;5023063;28;20117;-74
2021/12/10 04:00:25;;;;;;;3.13;1.10;;;;;;;;;;5023417;28;20136;-78
2021/12/10 04:02:51;;;;;;;1.73;1.10;;;;;;;;;;5034354;28;20279;-75
2021/12/10 04:05:19;;;;;;;2.50;1.10;;;;;;;;;;5032205;28;20117;-72
2021/12/10 04:07:45;;;;;;;6.68;1.30;;;;;;;;;;5037216;28;20116;-73
2021/12/10 04:10:14;;;;;;;2.28;1.20;;;;;;;;;;5034721;28;20490;-74
2021/12/10 04:12:40;;;;;;;1.88;1.10;;;;;;;;;;5012075;28;20080;-72
2021/12/10 04:15:08;;;;;;;4.78;1.10;;;;;;;;;;5022657;28;20060;-75
2021/12/10 04:17:35;;;;;;;2.10;1.25;;;;;;;;;;5025473;28;20114;-73
2021/12/10 04:20:04;;;;;;;2.47;1.10;;;;;;;;;;5026895;28;20071;-76
2021/12/10 04:22:32;;;;;;;2.97;1.20;;;;;;;;;;5029381;28;20063;-76
2021/12/10 04:25:04;;;;;;;2.20;1.20;;;;;;;;;;5026511;28;20053;-75
2021/12/10 04:27:31;;;;;;;3.65;1.30;;;;;;;;;;5024213;28;20178;-73
2021/12/10 04:29:58;;;;;;;5.45;1.40;;;;;;;;;;5004824;28;20053;-76
2021/12/10 04:32:27;;;;;;;2.85;1.20;;;;;;;;;;5028693;28;20072;-73
2021/12/10 04:34:54;;;;;;;3.05;1.40;;;;;;;;;;5015010;28;20056;-78
2021/12/10 04:37:21;;;;;;;1.95;1.23;;;;;;;;;;5024521;28;20045;-76
2021/12/10 04:39:48;;;;;;;4.00;1.17;;;;;;;;;;5026808;28;20060;-71
2021/12/10 04:42:20;;;;;;;3.55;1.25;;;;;;;;;;5026170;28;20053;-71
2021/12/10 04:44:51;;;;;;;4.25;1.25;;;;;;;;;;5032607;28;20064;-73
2021/12/10 04:47:17;;;;;;;2.75;1.10;;;;;;;;;;5026225;28;20051;-73
2021/12/10 04:49:43;;;;;;;1.90;1.20;;;;;;;;;;5028662;28;20057;-71
2021/12/10 04:52:10;;;;;;;3.70;1.50;;;;;;;;;;5030288;28;20056;-73
2021/12/10 04:54:37;;;;;;;2.03;1.10;;;;;;;;;;5037358;28;21128;-74
2021/12/10 04:57:04;;;;;;;2.45;0.93;;;;;;;;;;5034369;28;20069;-73
2021/12/10 04:59:33;;;;;;;1.80;1.20;;;;;;;;;;5032983;28;20063;-72
2021/12/10 05:02:04;;;;;;;2.63;1.40;;;;;;;;;;5024500;28;20057;-76
2021/12/10 05:04:30;;;;;;;2.92;1.38;;;;;;;;;;5028143;28;20102;-78
2021/12/10 05:06:58;;;;;;;2.97;1.10;;;;;;;;;;5021849;28;20049;-78
2021/12/10 05:09:25;;;;;;;3.60;1.30;;;;;;;;;;5027805;28;20093;-74
2021/12/10 05:11:53;;;;;;;3.00;1.20;;;;;;;;;;5020856;28;20053;-77
2021/12/10 05:14:21;;;;;;;1.63;1.17;;;;;;;;;;5027122;28;20105;-78
2021/12/10 05:16:50;;;;;;;1.77;1.20;;;;;;;;;;5024645;28;20777;-71
2021/12/10 05:19:20;;;;;;;2.05;1.20;;;;;;;;;;5028443;28;20064;-71
2021/12/10 05:21:48;;;;;;;4.30;1.30;;;;;;;;;;5025020;28;20057;-70
2021/12/10 05:24:17;;;;;;;1.75;1.10;;;;;;;;;;5027565;28;20059;-71
2021/12/10 05:26:45;;;;;;;2.53;1.15;;;;;;;;;;5005548;28;20939;-73
2021/12/10 05:29:12;;;;;;;5.47;1.20;;;;;;;;;;5030065;28;20118;-74
2021/12/10 05:31:43;;;;;;;1.83;1.15;;;;;;;;;;5027075;28;20220;-74
2021/12/10 05:34:10;;;;;;;4.95;1.35;;;;;;;;;;5029083;28;20127;-73
2021/12/10 05:36:37;;;;;;;5.18;1.80;;;;;;;;;;5025711;28;20370;-78
2021/12/10 05:39:06;;;;;;;2.92;1.25;;;;;;;;;;5030867;28;20053;-78
2021/12/10 05:41:33;;;;;;;2.72;1.20;;;;;;;;;;5036358;28;20924;-74
2021/12/10 05:44:00;;;;;;;3.33;2.00;;;;;;;;;;5030165;28;20424;-73
2021/12/10 05:46:27;;;;;;;2.95;1.50;;;;;;;;;;5023773;28;20076;-71
2021/12/10 05:48:53;;;;;;;3.78;1.38;;;;;;;;;;5023212;28;20069;-78
2021/12/10 05:51:20;;;;;;;2.47;1.30;;;;;;;;;;5023431;28;20921;-72
2021/12/10 05:53:46;;;;;;;2.97;1.45;;;;;;;;;;5026083;28;20040;-72
2021/12/10 05:56:12;;;;;;;2.45;1.25;;;;;;;;;;5024350;28;20049;-71
2021/12/10 05:58:39;;;;;;;1.95;1.20;;;;;;;;;;5018742;28;20420;-75
2021/12/10 06:01:11;;;;;;;3.88;1.00;;;;;;;;;;5018177;28;20094;-78
2021/12/10 06:03:40;;;;;;;5.03;1.58;;;;;;;;;;5019104;28;20057;-73
2021/12/10 06:06:07;;;;;;;4.82;1.08;;;;;;;;;;4993095;28;20053;-73
2021/12/10 06:08:36;;;;;;;2.15;1.25;;;;;;;;;;5027697;28;20044;-75
2021/12/10 06:11:03;;;;;;;3.30;1.40;;;;;;;;;;5033734;28;20675;-78
2021/12/10 06:13:29;;;;;;;2.60;1.25;;;;;;;;;;5018852;28;20266;-74
2021/12/10 06:15:56;;;;;;;1.90;1.10;;;;;;;;;;5023016;28;20522;-73
2021/12/10 06:18:23;;;;;;;2.20;1.20;;;;;;;;;;5020244;28;20440;-74
2021/12/10 06:20:53;;;;;;;4.70;1.45;;;;;;;;;;5025027;28;20148;-75
2021/12/10 06:23:20;;;;;;;2.35;1.00;;;;;;;;;;5022229;28;20053;-75
2021/12/10 06:25:47;;;;;;;4.32;1.20;;;;;;;;;;5022257;28;20094;-74
2021/12/10 06:28:13;;;;;;;5.50;1.15;;;;;;;;;;5017407;28;20084;-73
2021/12/10 06:30:43;;;;;;;8.57;1.40;;;;;;;;;;5022144;28;20121;-75
2021/12/10 06:33:13;;;;;;;2.00;0.98;;;;;;;;;;5021477;28;20151;-74
2021/12/10 06:35:43;;;;;;;3.25;1.20;;;;;;;;;;5032271;28;20671;-71
2021/12/10 06:38:09;;;;;;;2.97;1.10;;;;;;;;;;5009318;28;20083;-74
2021/12/10 06:40:38;;;;;;;2.05;1.20;;;;;;;;;;5027793;28;20151;-78
2021/12/10 06:43:05;;;;;;;2.05;1.10;;;;;;;;;;5022702;28;20100;-73
2021/12/10 06:45:34;;;;;;;3.80;1.25;;;;;;;;;;5020483;28;20708;-78
2021/12/10 06:48:02;;;;;;;6.60;1.23;;;;;;;;;;5025544;28;20072;-76
2021/12/10 06:50:32;;;;;;;3.33;1.20;;;;;;;;;;5025203;28;20063;-77
2021/12/10 06:52:59;;;;;;;3.40;1.40;;;;;;;;;;5025096;28;20052;-72
2021/12/10 06:55:27;;;;;;;3.78;1.10;;;;;;;;;;5032036;28;20049;-77
2021/12/10 06:57:54;;;;;;;6.25;1.60;;;;;;;;;;5029322;28;20057;-76
2021/12/10 07:00:25;;;;;;;1.95;1.20;;;;;;;;;;5034543;28;20123;-73
2021/12/10 07:02:51;;;;;;;2.03;1.10;;;;;;;;;;5028710;28;20044;-74
2021/12/10 07:05:18;;;;;;;2.13;1.50;;;;;;;;;;5031752;28;20073;-71
2021/12/10 07:07:45;;;;;;;1.95;1.20;;;;;;;;;;5023281;28;20063;-70
2021/12/10 07:10:14;;;;;;;4.60;1.30;;;;;;;;;;5021568;28;20053;-71
2021/12/10 07:12:41;;;;;;;3.38;1.17;;;;;;;;;;5021435;28;20052;-76
2021/12/10 07:15:11;;;;;;;4.45;1.30;;;;;;;;;;5022111;28;20534;-73
2021/12/10 07:17:38;;;;;;;4.53;1.55;;;;;;;;;;5019749;28;20692;-73
2021/12/10 07:20:07;;;;;;;4.53;1.27;;;;;;;;;;5021726;28;20116;-74
2021/12/10 07:22:34;;;;;;;4.13;1.40;;;;;;;;;;5019039;28;20087;-73
2021/12/10 07:25:01;;;;;;;5.45;1.25;;;;;;;;;;5020991;28;20071;-66
2021/12/10 07:27:27;;;;;;;1.73;0.98;;;;;;;;;;5012025;28;20062;-69
2021/12/10 07:29:54;;;;;;;1.45;1.00;;;;;;;;;;5021529;28;20061;-71
2021/12/10 07:32:20;;;;;;;6.38;1.35;;;;;;;;;;5021189;28;20080;-77
2021/12/10 07:34:48;;;;;;;3.97;1.30;;;;;;;;;;5020855;28;20080;-71
2021/12/10 07:37:16;;;;;;;3.67;1.20;;;;;;;;;;5014623;28;20594;-73
2021/12/10 07:39:44;;;;;;;4.63;1.50;;;;;;;;;;5022591;28;20049;-74
2021/12/10 07:42:11;;;;;;;21.90;2.03;;;;;;;;;;5027173;28;20529;-76
2021/12/10 07:44:39;;;;;;;8.32;1.80;;;;;;;;;;5030928;28;20879;-69
2021/12/10 07:47:13;;;;;;;5.05;1.60;;;;;;;;;;5000016;28;20053;-70
2021/12/10 07:49:41;;;;;;;4.63;1.17;;;;;;;;;;5011141;28;20414;-67
2021/12/10 07:52:15;;;;;;;6.85;1.40;;;;;;;;;;5021246;28;20065;-76
2021/12/10 07:54:42;;;;;;;;;;;;;;;;;;5019967;28;20045;-69
2021/12/10 07:57:09;;;;;;;5.00;1.80;;;;;;;;;;5025512;28;20284;-73
2021/12/10 07:59:35;;;;;;;8.07;1.67;;;;;;;;;;5035383;28;20082;-76
2021/12/10 08:02:04;;;;;;;4.72;1.27;;;;;;;;;;5038664;28;20155;-70
2021/12/10 08:04:31;;;;;;;7.95;1.42;;;;;;;;;;5026862;28;20151;-70
2021/12/10 08:06:58;;;;;;;3.33;1.40;;;;;;;;;;5043551;28;20049;-69
2021/12/10 08:09:26;;;;;;;4.03;1.20;;;;;;;;;;5045687;28;20132;-70
2021/12/10 08:11:53;;;;;;;7.40;1.60;;;;;;;;;;5032426;28;20124;-72
2021/12/10 08:14:19;;;;;;;3.65;1.20;;;;;;;;;;5025565;28;20067;-68
2021/12/10 08:16:45;;;;;;;2.33;1.45;;;;;;;;;;5025261;28;20423;-67
2021/12/10 08:19:12;;;;;;;5.35;1.40;;;;;;;;;;5046018;28;20049;-66
2021/12/10 08:21:40;;;;;;;3.70;1.45;;;;;;;;;;5046292;28;20143;-70
2021/12/10 08:24:07;;;;;;;7.20;1.48;;;;;;;;;;5041798;28;20066;-71
2021/12/10 08:26:35;;;;;;;4.72;1.42;;;;;;;;;;5045086;28;20503;-70
2021/12/10 08:29:03;;;;;;;5.53;1.40;;;;;;;;;;5045288;28;20056;-66
2021/12/10 08:31:30;;;;;;;2.88;1.30;;;;;;;;;;5048125;28;20151;-70
2021/12/10 08:33:57;;;;;;;9.43;1.20;;;;;;;;;;5047280;28;20089;-69
2021/12/10 08:36:24;;;;;;;4.68;1.20;;;;;;;;;;5045856;28;20484;-63
2021/12/10 08:38:52;;;;;;;4.30;1.30;;;;;;;;;;5046375;28;20422;-64
2021/12/10 08:41:25;;;;;;;4.00;1.30;;;;;;;;;;5051433;28;20057;-67
2021/12/10 08:43:56;;;;;;;3.25;1.48;;;;;;;;;;5051187;28;20116;-65
2021/12/10 08:46:24;;;;;;;4.38;1.33;;;;;;;;;;5031407;28;20049;-71
2021/12/10 08:48:52;;;;;;;6.28;1.50;;;;;;;;;;5050463;28;20049;-66
2021/12/10 08:51:24;;;;;;;11.45;1.90;;;;;;;;;;5054790;28;20098;-72
2021/12/10 08:53:52;;;;;;;5.65;1.48;;;;;;;;;;5052742;28;20053;-74
2021/12/10 08:56:19;;;;;;;8.32;1.65;;;;;;;;;;5034844;28;20052;-75
2021/12/10 08:58:45;;;;;;;2.45;1.13;;;;;;;;;;5047390;28;20112;-73
2021/12/10 09:01:19;;;;;;;7.40;1.27;;;;;;;;;;5053250;28;20049;-66
2021/12/10 09:03:57;;;;;;;8.27;1.38;;;;;;;;;;5036695;28;20049;-64
2021/12/10 09:06:29;;;;;;;6.22;1.25;;;;;;;;;;5054516;28;20194;-64
2021/12/10 09:08:56;;;;;;;5.07;1.50;;;;;;;;;;5051430;28;20056;-66
2021/12/10 09:11:24;;;;;;;6.07;1.50;;;;;;;;;;5053299;28;20078;-66
2021/12/10 09:13:52;;;;;;;9.40;1.55;;;;;;;;;;5053838;28;20409;-69
2021/12/10 09:16:25;;;;;;;6.90;1.10;;;;;;;;;;5053067;28;20072;-65
2021/12/10 09:18:57;;;;;;;1.90;1.10;;;;;;;;;;5053825;28;20140;-67
2021/12/10 09:21:24;;;;;;;1.83;0.80;;;;;;;;;;5040960;28;20091;-65
2021/12/10 09:23:56;;;;;;;3.90;1.20;;;;;;;;;;5040288;28;20049;-77
2021/12/10 09:26:27;;;;;;;2.40;1.00;;;;;;;;;;5016997;28;20276;-64
2021/12/10 09:28:56;;;;;;;3.40;1.13;;;;;;;;;;5032738;28;20041;-74
2021/12/10 09:31:24;;;;;;;1.80;1.02;;;;;;;;;;5035434;28;20073;-72
2021/12/10 09:33:56;;;;;;;1.98;0.93;;;;;;;;;;5031634;28;20057;-75
2021/12/10 09:36:24;;;;;;;1.52;1.05;;;;;;;;;;5031904;28;20881;-74
2021/12/10 09:38:50;;;;;;;6.78;1.60;;;;;;;;;;5029627;28;20132;-74
2021/12/10 09:41:17;;;;;;;2.72;1.10;;;;;;;;;;5033894;28;20454;-72
2021/12/10 09:43:44;;;;;;;5.65;1.70;;;;;;;;;;5028667;28;20055;-66
2021/12/10 09:46:12;;;;;;;3.53;1.40;;;;;;;;;;5054949;28;20134;-67
2021/12/10 09:48:40;;;;;;;3.60;1.00;;;;;;;;;;5055512;28;20057;-72
2021/12/10 09:51:15;;;;;;;4.00;1.10;;;;;;;;;;5050840;28;20055;-69
2021/12/10 09:53:43;;;;;;;;;;;;;;;;;;5051856;28;20508;-66
2021/12/10 09:56:10;;;;;;;2.70;1.05;;;;;;;;;;5050437;28;19921;-71
2021/12/10 09:58:37;;;;;;;4.70;1.08;;;;;;;;;;5049958;28;20048;-65
2021/12/10 10:01:15;;;;;;;3.00;1.10;;;;;;;;;;5051452;28;20081;-73
2021/12/10 10:03:45;;;;;;;5.97;1.45;;;;;;;;;;5050180;28;20049;-67
2021/12/10 10:06:13;;;;;;;2.95;1.25;;;;;;;;;;5050470;28;20056;-70
2021/12/10 10:08:40;;;;;;;5.88;0.95;;;;;;;;;;5040068;28;20053;-78
2021/12/10 10:11:11;;;;;;;3.28;1.30;;;;;;;;;;5043014;28;20130;-80
2021/12/10 10:13:40;;;;;;;6.95;1.15;;;;;;;;;;5037289;28;20586;-71
2021/12/10 10:16:08;;;;;;;2.40;1.05;;;;;;;;;;5023779;28;20060;-75
2021/12/10 10:18:37;;;;;;;1.63;1.00;;;;;;;;;;5041290;28;20064;-69
2021/12/10 10:21:14;;;;;;;4.53;1.10;;;;;;;;;;5038579;28;20522;-67
2021/12/10 10:23:42;;;;;;;2.97;1.10;;;;;;;;;;5012008;28;20053;-72
2021/12/10 10:26:12;;;;;;;5.60;1.10;;;;;;;;;;5039844;28;20064;-74
2021/12/10 10:28:39;;;;;;;4.07;1.02;;;;;;;;;;5038362;28;20084;-76
2021/12/10 10:31:16;;;;;;;2.38;1.10;;;;;;;;;;5041527;28;20053;-72
2021/12/10 10:33:45;;;;;;;3.67;1.30;;;;;;;;;;5041842;28;20076;-70
2021/12/10 10:36:19;;;;;;;5.03;1.30;;;;;;;;;;5041509;28;20098;-84
2021/12/10 10:38:49;;;;;;;2.35;0.90;;;;;;;;;;5040300;28;20053;-73
2021/12/10 10:41:19;;;;;;;7.90;1.23;;;;;;;;;;5042925;28;20045;-74
2021/12/10 10:43:45;;;;;;;4.45;1.30;;;;;;;;;;5042318;28;20072;-75
2021/12/10 10:46:12;;;;;;;5.43;1.20;;;;;;;;;;5038944;28;20065;-68
2021/12/10 10:48:42;;;;;;;3.03;1.17;;;;;;;;;;5042262;28;20057;-72
2021/12/10 10:51:16;;;;;;;3.65;1.20;;;;;;;;;;5024443;28;20137;-73
2021/12/10 10:53:48;;;;;;;4.95;1.92;;;;;;;;;;5043459;28;20045;-73
2021/12/10 10:56:26;;;;;;;3.45;1.40;;;;;;;;;;5043053;28;20085;-74
2021/12/10 10:58:57;;;;;;;10.65;1.30;;;;;;;;;;5036988;28;20051;-68
2021/12/10 11:01:40;;;;;;;3.38;1.23;;;;;;;;;;5040109;28;20393;-70
2021/12/10 11:04:18;;;;;;;7.32;1.30;;;;;;;;;;5041334;28;20057;-68
2021/12/10 11:06:48;;;;;;;3.88;1.30;;;;;;;;;;5035387;28;20091;-74
2021/12/10 11:09:18;;;;;;;6.28;1.00;;;;;;;;;;5037145;28;20499;-78
2021/12/10 11:11:55;;;;;;;3.22;1.48;;;;;;;;;;5040755;28;20495;-75
2021/12/10 11:14:23;;;;;;;11.00;1.40;;;;;;;;;;5043387;28;20068;-74
2021/12/10 11:16:54;;;;;;;4.90;1.30;;;;;;;;;;5020060;28;20242;-73
2021/12/10 11:19:24;;;;;;;2.40;1.55;;;;;;;;;;5041461;28;20057;-67
2021/12/10 11:21:59;;;;;;;6.45;1.38;;;;;;;;;;5042005;28;20060;-70
2021/12/10 11:24:44;;;;;;;2.58;1.15;;;;;;;;;;5044748;28;20976;-73
2021/12/10 11:27:19;;;;;;;4.78;1.15;;;;;;;;;;5028848;28;20389;-73
2021/12/10 11:30:03;;;;;;;4.63;1.10;;;;;;;;;;5031915;28;20075;-73
2021/12/10 11:32:51;;;;;;;2.42;1.00;;;;;;;;;;5031107;28;20128;-65
2021/12/10 11:35:23;;;;;;;2.22;1.20;;;;;;;;;;5033295;28;20049;-74
2021/12/10 11:38:16;;;;;;;2.20;1.10;;;;;;;;;;5035895;28;20080;-67
2021/12/10 11:40:52;;;;;;;1.63;1.10;;;;;;;;;;5033912;28;20419;-73
2021/12/10 11:48:38;;;;;;;5.05;1.20;;;;;;;;;;5040763;28;20057;-70
2021/12/10 11:51:27;;;;;;;5.53;1.40;;;;;;;;;;5039882;28;20075;-77
2021/12/10 11:53:59;;;;;;;4.15;1.10;;;;;;;;;;5038477;28;20120;-67
2021/12/10 11:56:36;;;;;;;3.67;1.60;;;;;;;;;;5033122;28;20164;-79
2021/12/10 11:59:14;;;;;;;2.15;1.10;;;;;;;;;;5036567;28;20049;-65
2021/12/10 12:01:52;;;;;;;1.48;0.80;;;;;;;;;;5036118;28;20060;-69
2021/12/10 12:04:27;;;;;;;1.10;0.90;;;;;;;;;;5034129;28;20136;-74
2021/12/10 12:07:33;;;;;;;2.00;1.00;;;;;;;;;;5027927;28;20057;-74
2021/12/10 12:10:11;;;;;;;2.10;0.90;;;;;;;;;;5032609;28;20053;-66
2021/12/10 12:12:42;;;;;;;4.85;1.13;;;;;;;;;;5034522;28;20060;-70
2021/12/10 12:15:26;;;;;;;2.63;1.10;;;;;;;;;;5031972;28;20119;-73
2021/12/10 12:18:06;;;;;;;1.42;1.10;;;;;;;;;;5029319;28;20489;-75
2021/12/10 12:20:49;;;;;;;4.32;1.20;;;;;;;;;;5033813;28;20088;-65
2021/12/10 12:26:21;;;;;;;2.63;1.10;;;;;;;;;;5038957;28;20114;-68
2021/12/10 12:28:52;;;;;;;4.10;1.45;;;;;;;;;;5043935;28;20573;-78
2021/12/10 12:31:47;;;;;;;1.15;0.90;;;;;;;;;;5044845;28;20567;-75
2021/12/10 12:34:26;;;;;;;3.05;1.00;;;;;;;;;;5033968;28;20060;-71
2021/12/10 12:36:52;;;;;;;1.55;0.90;;;;;;;;;;5039316;28;20134;-70
2021/12/10 12:39:42;;;;;;;2.13;1.05;;;;;;;;;;5040444;28;20132;-78
2021/12/10 12:42:33;;;;;;;4.85;1.20;;;;;;;;;;5042740;28;20067;-73
2021/12/10 12:45:18;;;;;;;2.20;1.10;;;;;;;;;;5045612;28;20060;-65
2021/12/10 12:47:48;;;;;;;2.08;1.02;;;;;;;;;;5040797;28;20049;-73
2021/12/10 12:50:18;;;;;;;1.80;1.17;;;;;;;;;;5023042;28;20053;-70
2021/12/10 12:52:44;;;;;;;5.18;1.02;;;;;;;;;;5042995;28;20511;-72
2021/12/10 12:55:20;;;;;;;5.88;1.40;;;;;;;;;;5041501;28;20076;-80
2021/12/10 12:58:10;;;;;;;6.45;1.83;;;;;;;;;;5038204;28;20053;-72
2021/12/10 13:00:48;;;;;;;4.60;1.75;;;;;;;;;;5041601;28;20087;-75
2021/12/10 13:03:20;;;;;;;8.40;1.33;;;;;;;;;;5044366;28;20131;-70
2021/12/10 13:06:24;;;;;;;5.43;1.23;;;;;;;;;;5039933;28;20049;-73
2021/12/10 13:09:05;;;;;;;4.47;1.17;;;;;;;;;;5015367;28;20228;-71
2021/12/10 13:12:03;;;;;;;7.25;1.45;;;;;;;;;;5015710;28;20095;-65
2021/12/10 13:14:36;;;;;;;5.75;1.25;;;;;;;;;;5009167;28;20187;-66
2021/12/10 13:17:25;;;;;;;3.53;1.40;;;;;;;;;;5016450;28;20136;-68
2021/12/10 13:19:54;;;;;;;5.68;1.42;;;;;;;;;;5015977;28;20091;-73
2021/12/10 13:22:25;;;;;;;6.40;1.73;;;;;;;;;;5016336;28;20053;-78
2021/12/10 13:24:56;;;;;;;3.13;1.27;;;;;;;;;;4996666;28;20049;-71
2021/12/10 13:27:25;;;;;;;4.28;1.45;;;;;;;;;;5017387;28;20049;-69
2021/12/10 13:29:52;;;;;;;4.80;1.30;;;;;;;;;;5002612;28;20054;-66
2021/12/10 13:32:19;;;;;;;4.32;1.73;;;;;;;;;;5001258;28;20050;-73
2021/12/10 13:34:45;;;;;;;5.43;1.70;;;;;;;;;;5016877;28;20616;-70
2021/12/10 13:37:14;;;;;;;2.42;1.20;;;;;;;;;;4997423;28;20537;-75
2021/12/10 13:39:46;;;;;;;3.42;1.30;;;;;;;;;;4982540;28;20100;-73
2021/12/10 13:42:15;;;;;;;2.47;1.30;;;;;;;;;;5021554;28;20084;-76
2021/12/10 13:44:45;;;;;;;4.20;1.42;;;;;;;;;;5040571;28;20043;-79
2021/12/10 13:47:24;;;;;;;5.68;1.65;;;;;;;;;;5041068;28;20045;-71
2021/12/10 13:50:16;;;;;;;6.22;1.30;;;;;;;;;;5039253;28;20520;-65
2021/12/10 13:53:00;;;;;;;3.58;1.48;;;;;;;;;;5026568;28;20508;-68
2021/12/10 13:55:42;;;;;;;8.88;1.60;;;;;;;;;;5042490;28;20530;-64
2021/12/10 13:58:12;;;;;;;3.25;1.63;;;;;;;;;;5044226;28;20061;-67
2021/12/10 14:00:48;;;;;;;7.55;1.50;;;;;;;;;;5044881;28;20437;-82
2021/12/10 14:03:15;;;;;;;3.72;1.70;;;;;;;;;;5049223;28;20041;-73
2021/12/10 14:05:43;;;;;;;5.95;1.40;;;;;;;;;;5025680;28;20064;-70
2021/12/10 14:08:16;;;;;;;6.72;1.13;;;;;;;;;;5043338;28;20049;-75
2021/12/10 14:10:47;;;;;;;3.88;1.10;;;;;;;;;;5044666;28;20041;-68
2021/12/10 14:13:32;;;;;;;8.50;1.38;;;;;;;;;;5040790;28;20060;-71
2021/12/10 14:16:05;;;;;;;2.58;1.02;;;;;;;;;;5044293;28;20045;-66
2021/12/10 14:18:43;;;;;;;3.38;0.90;;;;;;;;;;5044367;28;20385;-66
2021/12/10 14:21:16;;;;;;;3.70;1.00;;;;;;;;;;5029836;28;20599;-78
2021/12/10 14:23:55;;;;;;;7.77;1.57;;;;;;;;;;5043708;28;20053;-67
2021/12/10 14:26:30;;;;;;;4.47;1.10;;;;;;;;;;5038397;28;20060;-76
2021/12/10 14:29:02;;;;;;;2.45;1.10;;;;;;;;;;5039340;28;20664;-65
2021/12/10 14:31:40;;;;;;;4.78;1.08;;;;;;;;;;5041588;28;20678;-76
2021/12/10 14:34:14;;;;;;;2.72;1.20;;;;;;;;;;5045056;28;20558;-71
2021/12/10 14:36:44;;;;;;;2.08;1.02;;;;;;;;;;5045643;28;20048;-82
2021/12/10 14:39:13;;;;;;;3.50;0.90;;;;;;;;;;5019869;28;20304;-80
2021/12/10 14:41:45;;;;;;;2.47;1.00;;;;;;;;;;5020193;28;20061;-73
2021/12/10 14:44:33;;;;;;;5.07;1.15;;;;;;;;;;5041053;28;20127;-68
2021/12/10 14:47:20;;;;;;;5.97;1.10;;;;;;;;;;5043628;28;20390;-74
2021/12/10 14:50:01;;;;;;;4.60;1.05;;;;;;;;;;5044884;28;20060;-71
2021/12/10 14:52:39;;;;;;;4.47;1.42;;;;;;;;;;5051795;28;20064;-66
2021/12/10 14:55:21;;;;;;;3.40;1.20;;;;;;;;;;5044515;28;20053;-70
2021/12/10 14:57:59;;;;;;;2.63;1.15;;;;;;;;;;5049078;28;20051;-71
2021/12/10 15:00:37;;;;;;;9.13;1.20;;;;;;;;;;5050741;28;20136;-66
2021/12/10 15:03:05;;;;;;;3.63;1.23;;;;;;;;;;5050818;28;20044;-71
2021/12/10 15:05:47;;;;;;;4.45;1.80;;;;;;;;;;5048900;28;20048;-73
2021/12/10 15:08:45;;;;;;;2.80;1.20;;;;;;;;;;5046635;28;20416;-69
2021/12/10 15:11:38;;;;;;;6.07;1.45;;;;;;;;;;5049962;28;20053;-69
2021/12/10 15:14:32;;;;;;;3.65;1.92;;;;;;;;;;5049404;28;20060;-68
2021/12/10 15:17:17;;;;;;;6.47;1.40;;;;;;;;;;5048925;28;21424;-66
2021/12/10 15:19:48;;;;;;;4.18;1.40;;;;;;;;;;5048293;28;20061;-69
2021/12/10 15:22:30;;;;;;;3.10;1.13;;;;;;;;;;5051791;28;20048;-66
2021/12/10 15:24:56;;;;;;;3.47;1.17;;;;;;;;;;5047137;28;20053;-66
2021/12/10 15:27:31;;;;;;;2.97;1.40;;;;;;;;;;5049330;28;20482;-69